EST,Max TemperatureF,Mean TemperatureF,Min TemperatureF,Max Dew PointF,MeanDew PointF,Min DewpointF,Max Humidity, Mean Humidity, Min Humidity, Max Sea Level PressureIn, Mean Sea Level PressureIn, Min Sea Level PressureIn, Max VisibilityMiles, Mean VisibilityMiles, Min VisibilityMiles, Max Wind SpeedMPH, Mean Wind SpeedMPH, Max Gust SpeedMPH,PrecipitationIn, CloudCover, Events, WindDirDegrees
2013-1-1,28,22,17,27,17,10,93,81,63,29.98,29.94,29.87,10,8,2,13,9,21,0.00,8,,310
2013-1-2,19,18,17,16,13,10,93,79,68,30.12,30.04,29.94,10,9,2,13,8,18,0.00,8,,247
2013-1-3,24,20,15,21,15,9,86,79,68,30.11,30.04,29.97,10,8,1,16,10,23,0.00,8,,223
2013-1-4,28,26,24,21,17,12,86,72,55,30.08,30.00,29.93,10,8,2,26,16,36,0.00,5,,236
2013-1-5,28,26,24,21,20,18,86,79,69,30.27,30.16,30.05,10,9,3,16,11,22,0.00,7,,214
2013-1-6,30,29,28,28,26,19,93,87,69,30.09,29.97,29.89,10,6,1,14,9,20,0.02,8,,225
2013-1-7,30,26,21,28,22,18,93,81,69,30.37,30.25,30.11,10,9,5,18,10,24,0.01,6,,241
2013-1-8,37,27,17,21,19,16,93,70,48,30.29,30.24,30.18,10,8,3,13,9,16,0.00,0,,203
2013-1-9,42,35,28,34,25,21,87,68,42,30.39,30.18,30.05,10,10,10,28,11,36,0.00,2,,224
2013-1-10,37,32,26,27,25,21,93,75,60,30.57,30.47,30.32,10,10,10,12,6,,0.00,2,,218
2013-1-11,42,38,35,41,31,18,100,76,39,30.32,30.05,29.90,10,6,0,20,12,30,0.08,8,,174
2013-1-12,51,46,41,48,46,39,100,96,82,30.04,30.01,29.98,10,4,0,14,8,16,0.00,6,,187
2013-1-13,60,51,42,54,50,46,100,88,77,29.97,29.87,29.81,10,8,0,16,8,26,0.00,7,,200
2013-1-14,53,38,24,52,23,16,94,78,64,30.36,30.20,29.83,10,10,4,28,12,34,0.01,8,,280
2013-1-15,28,26,23,19,17,14,80,72,55,30.35,30.25,30.08,10,10,10,9,4,,0.00,5,,326
2013-1-16,33,28,24,27,22,18,86,74,60,30.07,29.88,29.79,10,10,10,20,6,26,0.00,5,,202
2013-1-17,30,24,19,27,21,16,93,79,64,30.09,30.02,29.88,10,8,1,23,12,30,0.00,8,,287
2013-1-18,26,20,14,14,8,3,86,64,51,30.37,30.23,30.06,10,8,1,23,13,29,0.00,5,,250
2013-1-19,46,36,26,27,20,12,55,48,39,30.06,29.90,29.66,10,10,10,21,15,32,0.00,3,,212
2013-1-20,42,28,15,28,16,9,86,69,46,30.02,29.85,29.55,10,6,0,37,19,59,0.00,8,,255
2013-1-21,17,14,10,12,9,3,86,80,53,30.00,29.88,29.79,10,4,0,21,8,28,0.00,8,,252
2013-1-22,10,6,3,5,-1,-6,92,79,66,30.08,29.99,29.84,2,1,0,22,14,33,0.02,8,,265
2013-1-23,8,4,1,5,0,-2,92,80,62,30.11,30.05,29.97,10,4,0,16,7,20,0.01,8,,231
2013-1-24,12,6,0,10,1,-6,100,79,62,30.42,30.25,29.96,10,6,0,15,4,20,0.00,6,,306
2013-1-25,10,6,1,9,3,-6,92,85,72,30.39,30.13,29.95,10,8,1,8,2,,0.00,7,,166
2013-1-26,19,14,10,16,11,7,100,85,73,30.35,30.14,29.98,10,7,1,8,3,,0.00,8,,280
2013-1-27,26,20,15,16,14,10,93,74,59,30.47,30.38,30.26,10,10,7,12,5,,0.00,5,,198
2013-1-28,42,33,24,43,31,12,100,91,55,30.26,30.02,29.89,10,3,0,15,11,24,0.30,8,,207
2013-1-29,51,43,35,52,42,34,100,97,93,30.01,29.92,29.76,10,1,0,14,7,20,0.48,8,Thunderstorm,195
2013-1-30,59,52,46,54,49,39,100,85,72,29.74,29.41,29.12,10,10,5,18,14,34,0.24,6,,188
2013-1-31,41,28,15,36,18,10,93,81,68,29.69,29.46,29.16,10,3,0,32,22,46,0.07,8,,257